Westminster, VT

4:24 AM EDT on September 05, 2015 (GMT -0400)
HADS | | Change Station
CLOSE
Current Station
Personal Weather Station
Location: North Walpole, NH
Elevation: 220 ft
Nearby Weather Stations

Elev 220 ft 43.13 °N, 72.44 °W | Updated 38 minutes ago

Fog
Fog
58.0 °F
Feels Like 58.0 °F
N
0.0
Wind Variable Wind from North
Gusts 0.0 mph

Today
High -- | Low -- °F
--% Chance of Precip.
Yesterday
High -- | Low -- °F
Precip. -- in
6:18 AM 7:18 PM
Waning Gibbous, 51% visible
Pressure 30.28 in
Visibility 0.2 miles
Clouds
Dew Point Not available.
Humidity Not available.
Rainfall in
Snow Depth Not available.
UV Not available.
Pollen 7.00 out of 12
Air Quality Not available.
Flu Activity Not available.
METAR KVSF 050754Z AUTO 00000KT 1/4SM FG VV002 12/12 A3027 RMK AO2 SLP252 T01170117
Pressure 30.28 in
Visibility 0.2 miles
Clouds
Dew Point Not available.
Humidity Not available.
Rainfall in
Snow Depth Not available.
UV Not available.
Pollen 7.00 out of 12
Air Quality Not available.
Flu Activity Not available.
METAR KVSF 050754Z AUTO 00000KT 1/4SM FG VV002 12/12 A3027 RMK AO2 SLP252 T01170117

10-Day Weather Forecast

×

Almanac

Astronomy

Sep. 05, 2015 Rise Set
Actual Time
Civil Twilight
Nautical Twilight
Astronomical Twilight
Moon
Length of Visible Light
Length of Day
Tomorrow will be .
, % of the Moon is Illuminated

Today's Extremes

State Highs State Lows

Community

WunderPhotos

Upload Photos

1,852,439 photos uploaded!

WunderBlogs® & News

Nearby

Air Quality

  Air Quality AQ Index Pollutant
Not available.

Snow Depth

Station Depth Elevation

Earthquake Activity

City Distance Mag. Time & Date
Minimum magnitude displayed is 2.5.

Coastal Water Temperatures

Place Temperature

Stations

Nearby Weather Stations

Station Location Temp. Windchill Dew Point Humidity Wind Precip. Elev Updated Type